sensor_id;sensor_type;location;lat;lon;timestamp;temperature;humidity
44277;DHT22;29973;43.742;1.236;2022-12-07T00:03:51;6.10;99.90
44277;DHT22;29973;43.742;1.236;2022-12-07T00:06:18;6.20;99.90
44277;DHT22;29973;43.742;1.236;2022-12-07T00:08:44;6.10;99.90
44277;DHT22;29973;43.742;1.236;2022-12-07T00:11:11;6.10;99.90
44277;DHT22;29973;43.742;1.236;2022-12-07T00:13:38;6.20;99.90
44277;DHT22;29973;43.742;1.236;2022-12-07T00:16:09;6.20;99.90
44277;DHT22;29973;43.742;1.236;2022-12-07T00:18:36;6.10;99.90
44277;DHT22;29973;43.742;1.236;2022-12-07T00:21:25;6.10;99.90
44277;DHT22;29973;43.742;1.236;2022-12-07T00:23:52;6.20;99.90
44277;DHT22;29973;43.742;1.236;2022-12-07T00:26:29;6.20;99.90
44277;DHT22;29973;43.742;1.236;2022-12-07T00:28:57;6.10;99.90
44277;DHT22;29973;43.742;1.236;2022-12-07T00:31:25;6.20;99.90
44277;DHT22;29973;43.742;1.236;2022-12-07T00:33:51;6.20;99.90
44277;DHT22;29973;43.742;1.236;2022-12-07T00:36:20;6.20;99.90
44277;DHT22;29973;43.742;1.236;2022-12-07T00:38:46;6.10;99.90
44277;DHT22;29973;43.742;1.236;2022-12-07T00:41:14;6.10;99.90
44277;DHT22;29973;43.742;1.236;2022-12-07T00:43:41;6.10;99.90
44277;DHT22;29973;43.742;1.236;2022-12-07T00:46:07;6.10;99.90
44277;DHT22;29973;43.742;1.236;2022-12-07T00:48:33;6.10;99.90
44277;DHT22;29973;43.742;1.236;2022-12-07T00:50:59;6.10;99.90
44277;DHT22;29973;43.742;1.236;2022-12-07T00:53:25;6.10;99.90
44277;DHT22;29973;43.742;1.236;2022-12-07T00:55:51;6.10;99.90
44277;DHT22;29973;43.742;1.236;2022-12-07T00:58:18;6.10;99.90
44277;DHT22;29973;43.742;1.236;2022-12-07T01:00:44;6.10;99.90
44277;DHT22;29973;43.742;1.236;2022-12-07T01:03:12;6.10;99.90
44277;DHT22;29973;43.742;1.236;2022-12-07T01:05:38;6.10;99.90
44277;DHT22;29973;43.742;1.236;2022-12-07T01:08:05;6.20;99.90
44277;DHT22;29973;43.742;1.236;2022-12-07T01:10:31;6.10;99.90
44277;DHT22;29973;43.742;1.236;2022-12-07T01:12:57;6.10;99.90
44277;DHT22;29973;43.742;1.236;2022-12-07T01:15:24;6.20;99.90
44277;DHT22;29973;43.742;1.236;2022-12-07T01:17:50;6.20;99.90
44277;DHT22;29973;43.742;1.236;2022-12-07T01:20:16;6.20;99.90
44277;DHT22;29973;43.742;1.236;2022-12-07T01:22:43;6.20;99.90
44277;DHT22;29973;43.742;1.236;2022-12-07T01:25:10;6.10;99.90
44277;DHT22;29973;43.742;1.236;2022-12-07T01:27:36;6.20;99.90
44277;DHT22;29973;43.742;1.236;2022-12-07T01:30:05;6.20;99.90
44277;DHT22;29973;43.742;1.236;2022-12-07T01:32:31;6.20;99.90
44277;DHT22;29973;43.742;1.236;2022-12-07T01:34:57;6.30;99.90
44277;DHT22;29973;43.742;1.236;2022-12-07T01:37:22;6.30;99.90
44277;DHT22;29973;43.742;1.236;2022-12-07T01:39:50;6.30;99.90
44277;DHT22;29973;43.742;1.236;2022-12-07T01:42:16;6.30;99.90
44277;DHT22;29973;43.742;1.236;2022-12-07T01:47:51;6.30;99.90
44277;DHT22;29973;43.742;1.236;2022-12-07T01:50:18;6.30;99.90
44277;DHT22;29973;43.742;1.236;2022-12-07T01:52:46;6.20;99.90
44277;DHT22;29973;43.742;1.236;2022-12-07T01:55:14;6.30;99.90
44277;DHT22;29973;43.742;1.236;2022-12-07T01:57:52;6.40;99.90
44277;DHT22;29973;43.742;1.236;2022-12-07T02:00:18;6.40;99.90
44277;DHT22;29973;43.742;1.236;2022-12-07T02:02:53;6.30;99.90
44277;DHT22;29973;43.742;1.236;2022-12-07T02:05:19;6.30;99.90
44277;DHT22;29973;43.742;1.236;2022-12-07T02:07:47;6.30;99.90
44277;DHT22;29973;43.742;1.236;2022-12-07T02:10:19;6.30;99.90
44277;DHT22;29973;43.742;1.236;2022-12-07T02:12:48;6.40;99.90
44277;DHT22;29973;43.742;1.236;2022-12-07T02:15:15;6.40;99.90
44277;DHT22;29973;43.742;1.236;2022-12-07T02:20:30;6.40;99.90
44277;DHT22;29973;43.742;1.236;2022-12-07T02:28:31;6.40;99.90
44277;DHT22;29973;43.742;1.236;2022-12-07T02:31:08;6.40;99.90
44277;DHT22;29973;43.742;1.236;2022-12-07T02:33:42;6.30;99.90
44277;DHT22;29973;43.742;1.236;2022-12-07T02:36:24;6.30;99.90
44277;DHT22;29973;43.742;1.236;2022-12-07T02:41:46;6.30;99.90
44277;DHT22;29973;43.742;1.236;2022-12-07T02:44:20;6.30;99.90
44277;DHT22;29973;43.742;1.236;2022-12-07T02:46:57;6.30;99.90
44277;DHT22;29973;43.742;1.236;2022-12-07T02:49:25;6.20;99.90
44277;DHT22;29973;43.742;1.236;2022-12-07T02:51:53;6.20;99.90
44277;DHT22;29973;43.742;1.236;2022-12-07T02:54:20;6.20;99.90
44277;DHT22;29973;43.742;1.236;2022-12-07T02:56:52;6.20;99.90
44277;DHT22;29973;43.742;1.236;2022-12-07T03:02:58;6.20;99.90
44277;DHT22;29973;43.742;1.236;2022-12-07T03:13:51;6.20;99.90
44277;DHT22;29973;43.742;1.236;2022-12-07T03:16:23;6.20;99.90
44277;DHT22;29973;43.742;1.236;2022-12-07T03:19:09;6.20;99.90
44277;DHT22;29973;43.742;1.236;2022-12-07T03:21:40;6.20;99.90
44277;DHT22;29973;43.742;1.236;2022-12-07T03:24:15;6.30;99.90
44277;DHT22;29973;43.742;1.236;2022-12-07T03:26:49;6.30;99.90
44277;DHT22;29973;43.742;1.236;2022-12-07T03:29:25;6.20;99.90
44277;DHT22;29973;43.742;1.236;2022-12-07T03:31:59;6.20;99.90
44277;DHT22;29973;43.742;1.236;2022-12-07T03:35:05;6.30;99.90
44277;DHT22;29973;43.742;1.236;2022-12-07T03:37:31;6.20;99.90
44277;DHT22;29973;43.742;1.236;2022-12-07T03:40:20;6.30;99.90
44277;DHT22;29973;43.742;1.236;2022-12-07T03:42:48;6.30;99.90
44277;DHT22;29973;43.742;1.236;2022-12-07T03:45:16;6.30;99.90
44277;DHT22;29973;43.742;1.236;2022-12-07T03:48:17;6.30;99.90
44277;DHT22;29973;43.742;1.236;2022-12-07T03:54:10;6.30;99.90
44277;DHT22;29973;43.742;1.236;2022-12-07T03:56:36;6.30;99.90
44277;DHT22;29973;43.742;1.236;2022-12-07T03:59:03;6.30;99.90
44277;DHT22;29973;43.742;1.236;2022-12-07T04:01:29;6.30;99.90
44277;DHT22;29973;43.742;1.236;2022-12-07T04:03:54;6.20;99.90
44277;DHT22;29973;43.742;1.236;2022-12-07T04:06:20;6.30;99.90
44277;DHT22;29973;43.742;1.236;2022-12-07T04:08:46;6.30;99.90
44277;DHT22;29973;43.742;1.236;2022-12-07T04:11:11;6.30;99.90
44277;DHT22;29973;43.742;1.236;2022-12-07T04:13:37;6.20;99.90
44277;DHT22;29973;43.742;1.236;2022-12-07T04:16:23;6.20;99.90
44277;DHT22;29973;43.742;1.236;2022-12-07T04:18:48;6.20;99.90
44277;DHT22;29973;43.742;1.236;2022-12-07T04:21:14;6.20;99.90
44277;DHT22;29973;43.742;1.236;2022-12-07T04:23:40;6.20;99.90
44277;DHT22;29973;43.742;1.236;2022-12-07T04:26:05;6.20;99.90
44277;DHT22;29973;43.742;1.236;2022-12-07T04:28:31;6.30;99.90
44277;DHT22;29973;43.742;1.236;2022-12-07T04:30:57;6.30;99.90
44277;DHT22;29973;43.742;1.236;2022-12-07T04:33:22;6.30;99.90
44277;DHT22;29973;43.742;1.236;2022-12-07T04:35:48;6.30;99.90
44277;DHT22;29973;43.742;1.236;2022-12-07T04:38:15;6.30;99.90
44277;DHT22;29973;43.742;1.236;2022-12-07T04:40:42;6.30;99.90
44277;DHT22;29973;43.742;1.236;2022-12-07T04:43:08;6.20;99.90
44277;DHT22;29973;43.742;1.236;2022-12-07T04:45:34;6.20;99.90
44277;DHT22;29973;43.742;1.236;2022-12-07T04:47:59;6.30;99.90
44277;DHT22;29973;43.742;1.236;2022-12-07T04:50:25;6.20;99.90
44277;DHT22;29973;43.742;1.236;2022-12-07T04:52:51;6.20;99.90
44277;DHT22;29973;43.742;1.236;2022-12-07T04:55:16;6.20;99.90
44277;DHT22;29973;43.742;1.236;2022-12-07T04:57:42;6.20;99.90
44277;DHT22;29973;43.742;1.236;2022-12-07T05:00:08;6.20;99.90
44277;DHT22;29973;43.742;1.236;2022-12-07T05:02:34;6.20;99.90
44277;DHT22;29973;43.742;1.236;2022-12-07T05:04:59;6.20;99.90
44277;DHT22;29973;43.742;1.236;2022-12-07T05:07:25;6.30;99.90
44277;DHT22;29973;43.742;1.236;2022-12-07T05:09:51;6.20;99.90
44277;DHT22;29973;43.742;1.236;2022-12-07T05:12:16;6.20;99.90
44277;DHT22;29973;43.742;1.236;2022-12-07T05:14:42;6.20;99.90
44277;DHT22;29973;43.742;1.236;2022-12-07T05:17:08;6.20;99.90
44277;DHT22;29973;43.742;1.236;2022-12-07T05:19:34;6.20;99.90
44277;DHT22;29973;43.742;1.236;2022-12-07T05:21:59;6.20;99.90
44277;DHT22;29973;43.742;1.236;2022-12-07T05:24:25;6.20;99.90
44277;DHT22;29973;43.742;1.236;2022-12-07T05:26:51;6.20;99.90
44277;DHT22;29973;43.742;1.236;2022-12-07T05:29:17;6.20;99.90
44277;DHT22;29973;43.742;1.236;2022-12-07T05:31:43;6.20;99.90
44277;DHT22;29973;43.742;1.236;2022-12-07T05:34:09;6.20;99.90
44277;DHT22;29973;43.742;1.236;2022-12-07T05:36:35;6.20;99.90
44277;DHT22;29973;43.742;1.236;2022-12-07T05:39:01;6.20;99.90
44277;DHT22;29973;43.742;1.236;2022-12-07T05:41:26;6.30;99.90
44277;DHT22;29973;43.742;1.236;2022-12-07T05:44:10;6.20;99.90
44277;DHT22;29973;43.742;1.236;2022-12-07T05:46:36;6.10;99.90
44277;DHT22;29973;43.742;1.236;2022-12-07T05:49:02;6.10;99.90
44277;DHT22;29973;43.742;1.236;2022-12-07T05:51:28;6.10;99.90
44277;DHT22;29973;43.742;1.236;2022-12-07T05:53:54;6.20;99.90
44277;DHT22;29973;43.742;1.236;2022-12-07T05:56:19;6.30;99.90
44277;DHT22;29973;43.742;1.236;2022-12-07T05:58:45;6.20;99.90
44277;DHT22;29973;43.742;1.236;2022-12-07T06:01:29;6.20;99.90
44277;DHT22;29973;43.742;1.236;2022-12-07T06:03:55;6.20;99.90
44277;DHT22;29973;43.742;1.236;2022-12-07T06:06:21;6.10;99.90
44277;DHT22;29973;43.742;1.236;2022-12-07T06:08:46;6.20;99.90
44277;DHT22;29973;43.742;1.236;2022-12-07T06:11:12;6.10;99.90
44277;DHT22;29973;43.742;1.236;2022-12-07T06:13:56;6.10;99.90
44277;DHT22;29973;43.742;1.236;2022-12-07T06:16:22;6.00;99.90
44277;DHT22;29973;43.742;1.236;2022-12-07T06:18:48;6.10;99.90
44277;DHT22;29973;43.742;1.236;2022-12-07T06:21:13;6.00;99.90
44277;DHT22;29973;43.742;1.236;2022-12-07T06:23:39;5.90;99.90
44277;DHT22;29973;43.742;1.236;2022-12-07T06:26:05;6.00;99.90
44277;DHT22;29973;43.742;1.236;2022-12-07T06:28:31;6.00;99.90
44277;DHT22;29973;43.742;1.236;2022-12-07T06:30:58;5.90;99.90
44277;DHT22;29973;43.742;1.236;2022-12-07T06:33:24;5.90;99.90
44277;DHT22;29973;43.742;1.236;2022-12-07T06:35:50;5.90;99.90
44277;DHT22;29973;43.742;1.236;2022-12-07T06:38:16;5.90;99.90
44277;DHT22;29973;43.742;1.236;2022-12-07T06:40:42;5.90;99.90
44277;DHT22;29973;43.742;1.236;2022-12-07T06:43:08;5.90;99.90
44277;DHT22;29973;43.742;1.236;2022-12-07T06:45:33;5.90;99.90
44277;DHT22;29973;43.742;1.236;2022-12-07T06:47:59;5.80;99.90
44277;DHT22;29973;43.742;1.236;2022-12-07T06:50:25;5.80;99.90
44277;DHT22;29973;43.742;1.236;2022-12-07T06:52:51;5.90;99.90
44277;DHT22;29973;43.742;1.236;2022-12-07T06:55:17;5.80;99.90
44277;DHT22;29973;43.742;1.236;2022-12-07T06:57:43;5.70;99.90
44277;DHT22;29973;43.742;1.236;2022-12-07T07:00:10;5.80;99.90
44277;DHT22;29973;43.742;1.236;2022-12-07T07:02:35;5.80;99.90
44277;DHT22;29973;43.742;1.236;2022-12-07T07:05:02;5.80;99.90
44277;DHT22;29973;43.742;1.236;2022-12-07T07:07:28;5.80;99.90
44277;DHT22;29973;43.742;1.236;2022-12-07T07:09:53;5.70;99.90
44277;DHT22;29973;43.742;1.236;2022-12-07T07:12:19;5.80;99.90
44277;DHT22;29973;43.742;1.236;2022-12-07T07:14:45;5.70;99.90
44277;DHT22;29973;43.742;1.236;2022-12-07T07:17:10;5.70;99.90
44277;DHT22;29973;43.742;1.236;2022-12-07T07:19:36;5.70;99.90
44277;DHT22;29973;43.742;1.236;2022-12-07T07:22:03;5.80;99.90
44277;DHT22;29973;43.742;1.236;2022-12-07T07:24:29;5.80;99.90
44277;DHT22;29973;43.742;1.236;2022-12-07T07:26:54;5.80;99.90
44277;DHT22;29973;43.742;1.236;2022-12-07T07:29:20;5.80;99.90
44277;DHT22;29973;43.742;1.236;2022-12-07T07:31:46;5.90;99.90
44277;DHT22;29973;43.742;1.236;2022-12-07T07:34:12;5.90;99.90
44277;DHT22;29973;43.742;1.236;2022-12-07T07:36:37;5.90;99.90
44277;DHT22;29973;43.742;1.236;2022-12-07T07:39:03;5.90;99.90
44277;DHT22;29973;43.742;1.236;2022-12-07T07:41:30;5.90;99.90
44277;DHT22;29973;43.742;1.236;2022-12-07T07:43:57;5.90;99.90
44277;DHT22;29973;43.742;1.236;2022-12-07T07:46:22;5.90;99.90
44277;DHT22;29973;43.742;1.236;2022-12-07T07:48:48;6.00;99.90
44277;DHT22;29973;43.742;1.236;2022-12-07T07:51:14;6.10;99.90
44277;DHT22;29973;43.742;1.236;2022-12-07T07:53:40;6.10;99.90
44277;DHT22;29973;43.742;1.236;2022-12-07T07:56:05;6.10;99.90
44277;DHT22;29973;43.742;1.236;2022-12-07T07:58:31;6.20;99.90
44277;DHT22;29973;43.742;1.236;2022-12-07T08:00:57;6.30;99.90
44277;DHT22;29973;43.742;1.236;2022-12-07T08:03:28;6.40;99.90
44277;DHT22;29973;43.742;1.236;2022-12-07T08:05:54;6.50;99.90
44277;DHT22;29973;43.742;1.236;2022-12-07T08:08:20;6.60;99.90
44277;DHT22;29973;43.742;1.236;2022-12-07T08:10:45;6.60;99.90
44277;DHT22;29973;43.742;1.236;2022-12-07T08:13:11;6.70;99.90
44277;DHT22;29973;43.742;1.236;2022-12-07T08:15:40;6.80;99.90
44277;DHT22;29973;43.742;1.236;2022-12-07T08:18:06;6.90;99.90
44277;DHT22;29973;43.742;1.236;2022-12-07T08:20:34;7.10;99.90
44277;DHT22;29973;43.742;1.236;2022-12-07T08:23:00;7.10;99.90
44277;DHT22;29973;43.742;1.236;2022-12-07T08:25:26;7.10;99.90
44277;DHT22;29973;43.742;1.236;2022-12-07T08:27:52;7.10;99.90
44277;DHT22;29973;43.742;1.236;2022-12-07T08:30:18;7.00;99.90
44277;DHT22;29973;43.742;1.236;2022-12-07T08:32:45;7.00;99.90
44277;DHT22;29973;43.742;1.236;2022-12-07T08:35:11;7.00;99.90
44277;DHT22;29973;43.742;1.236;2022-12-07T08:37:37;7.00;99.90
44277;DHT22;29973;43.742;1.236;2022-12-07T08:40:04;7.10;99.90
44277;DHT22;29973;43.742;1.236;2022-12-07T08:42:30;7.10;99.90
44277;DHT22;29973;43.742;1.236;2022-12-07T08:45:05;7.20;99.90
44277;DHT22;29973;43.742;1.236;2022-12-07T08:47:30;7.30;99.90
44277;DHT22;29973;43.742;1.236;2022-12-07T08:49:57;7.40;99.90
44277;DHT22;29973;43.742;1.236;2022-12-07T08:52:29;7.50;99.90
44277;DHT22;29973;43.742;1.236;2022-12-07T08:54:55;7.60;99.90
44277;DHT22;29973;43.742;1.236;2022-12-07T08:57:21;7.70;99.90
44277;DHT22;29973;43.742;1.236;2022-12-07T08:59:47;8.20;99.90
44277;DHT22;29973;43.742;1.236;2022-12-07T09:02:13;9.50;99.90
44277;DHT22;29973;43.742;1.236;2022-12-07T09:04:39;10.40;99.90
44277;DHT22;29973;43.742;1.236;2022-12-07T09:07:05;11.60;99.90
44277;DHT22;29973;43.742;1.236;2022-12-07T09:09:32;13.50;99.90
44277;DHT22;29973;43.742;1.236;2022-12-07T09:11:57;14.40;99.90
44277;DHT22;29973;43.742;1.236;2022-12-07T09:14:23;14.90;99.90
44277;DHT22;29973;43.742;1.236;2022-12-07T09:16:49;15.10;99.90
44277;DHT22;29973;43.742;1.236;2022-12-07T09:19:15;15.40;99.90
44277;DHT22;29973;43.742;1.236;2022-12-07T09:21:41;16.50;99.90
44277;DHT22;29973;43.742;1.236;2022-12-07T09:24:07;16.20;99.90
44277;DHT22;29973;43.742;1.236;2022-12-07T09:26:33;16.80;99.90
44277;DHT22;29973;43.742;1.236;2022-12-07T09:29:01;16.50;99.90
44277;DHT22;29973;43.742;1.236;2022-12-07T09:31:27;17.70;99.90
44277;DHT22;29973;43.742;1.236;2022-12-07T09:33:58;17.90;99.90
44277;DHT22;29973;43.742;1.236;2022-12-07T09:36:24;18.00;99.10
44277;DHT22;29973;43.742;1.236;2022-12-07T09:38:51;17.10;99.70
44277;DHT22;29973;43.742;1.236;2022-12-07T09:41:16;14.00;99.90
44277;DHT22;29973;43.742;1.236;2022-12-07T09:43:42;12.10;99.90
44277;DHT22;29973;43.742;1.236;2022-12-07T09:46:12;11.70;99.90
44277;DHT22;29973;43.742;1.236;2022-12-07T09:48:41;10.90;99.90
44277;DHT22;29973;43.742;1.236;2022-12-07T09:51:17;10.50;99.90
44277;DHT22;29973;43.742;1.236;2022-12-07T09:53:43;12.00;99.90
44277;DHT22;29973;43.742;1.236;2022-12-07T09:56:15;15.00;99.90
44277;DHT22;29973;43.742;1.236;2022-12-07T09:58:41;17.40;99.90
44277;DHT22;29973;43.742;1.236;2022-12-07T10:03:35;18.30;95.10
44277;DHT22;29973;43.742;1.236;2022-12-07T10:06:02;18.80;95.20
44277;DHT22;29973;43.742;1.236;2022-12-07T10:08:28;18.90;91.40
44277;DHT22;29973;43.742;1.236;2022-12-07T10:10:55;19.10;91.30
44277;DHT22;29973;43.742;1.236;2022-12-07T10:13:35;19.50;90.40
44277;DHT22;29973;43.742;1.236;2022-12-07T10:16:01;19.40;90.30
44277;DHT22;29973;43.742;1.236;2022-12-07T10:18:40;19.80;89.90
44277;DHT22;29973;43.742;1.236;2022-12-07T10:26:38;18.70;83.60
44277;DHT22;29973;43.742;1.236;2022-12-07T10:29:31;19.00;84.20
44277;DHT22;29973;43.742;1.236;2022-12-07T10:32:21;19.00;83.80
44277;DHT22;29973;43.742;1.236;2022-12-07T10:34:50;20.00;80.50
44277;DHT22;29973;43.742;1.236;2022-12-07T10:37:18;19.60;82.30
44277;DHT22;29973;43.742;1.236;2022-12-07T10:39:52;20.20;81.40
44277;DHT22;29973;43.742;1.236;2022-12-07T10:42:21;20.00;78.10
44277;DHT22;29973;43.742;1.236;2022-12-07T10:44:48;21.20;73.20
44277;DHT22;29973;43.742;1.236;2022-12-07T10:47:34;19.00;82.00
44277;DHT22;29973;43.742;1.236;2022-12-07T10:55:33;19.20;77.30
44277;DHT22;29973;43.742;1.236;2022-12-07T11:03:59;18.00;83.80
44277;DHT22;29973;43.742;1.236;2022-12-07T11:06:39;20.80;76.60
44277;DHT22;29973;43.742;1.236;2022-12-07T11:09:37;21.40;75.50
44277;DHT22;29973;43.742;1.236;2022-12-07T11:12:14;20.30;77.10
44277;DHT22;29973;43.742;1.236;2022-12-07T11:15:11;19.20;77.50
44277;DHT22;29973;43.742;1.236;2022-12-07T11:20:41;18.80;74.40
44277;DHT22;29973;43.742;1.236;2022-12-07T11:23:21;19.30;74.10
44277;DHT22;29973;43.742;1.236;2022-12-07T11:34:24;21.20;63.70
44277;DHT22;29973;43.742;1.236;2022-12-07T11:36:54;21.40;65.60
44277;DHT22;29973;43.742;1.236;2022-12-07T11:39:30;20.70;65.90
44277;DHT22;29973;43.742;1.236;2022-12-07T11:42:22;21.80;63.90
44277;DHT22;29973;43.742;1.236;2022-12-07T11:50:26;20.80;73.00
44277;DHT22;29973;43.742;1.236;2022-12-07T12:06:42;20.80;66.60
44277;DHT22;29973;43.742;1.236;2022-12-07T12:20:24;22.20;62.80
44277;DHT22;29973;43.742;1.236;2022-12-07T12:23:01;22.00;58.40
44277;DHT22;29973;43.742;1.236;2022-12-07T12:33:55;22.50;57.70
44277;DHT22;29973;43.742;1.236;2022-12-07T12:54:35;21.50;58.50
44277;DHT22;29973;43.742;1.236;2022-12-07T12:57:23;22.30;58.90
44277;DHT22;29973;43.742;1.236;2022-12-07T13:02:30;22.80;55.30
44277;DHT22;29973;43.742;1.236;2022-12-07T13:10:24;21.70;58.00
44277;DHT22;29973;43.742;1.236;2022-12-07T13:12:58;21.80;56.80
44277;DHT22;29973;43.742;1.236;2022-12-07T13:33:44;22.10;58.30
44277;DHT22;29973;43.742;1.236;2022-12-07T13:36:26;21.10;60.50
44277;DHT22;29973;43.742;1.236;2022-12-07T13:39:00;20.30;63.50
44277;DHT22;29973;43.742;1.236;2022-12-07T13:41:29;20.90;62.90
44277;DHT22;29973;43.742;1.236;2022-12-07T13:44:08;21.40;61.00
44277;DHT22;29973;43.742;1.236;2022-12-07T13:49:24;21.00;64.40
44277;DHT22;29973;43.742;1.236;2022-12-07T13:51:51;20.50;64.40
44277;DHT22;29973;43.742;1.236;2022-12-07T13:54:19;19.80;67.90
44277;DHT22;29973;43.742;1.236;2022-12-07T13:56:51;19.10;69.20
44277;DHT22;29973;43.742;1.236;2022-12-07T13:59:21;19.00;73.80
44277;DHT22;29973;43.742;1.236;2022-12-07T14:01:48;19.80;70.30
44277;DHT22;29973;43.742;1.236;2022-12-07T14:04:35;20.10;66.60
44277;DHT22;29973;43.742;1.236;2022-12-07T14:07:24;20.40;66.60
44277;DHT22;29973;43.742;1.236;2022-12-07T14:09:57;20.40;65.50
44277;DHT22;29973;43.742;1.236;2022-12-07T14:12:24;21.60;62.10
44277;DHT22;29973;43.742;1.236;2022-12-07T14:14:51;22.90;60.10
44277;DHT22;29973;43.742;1.236;2022-12-07T14:17:19;23.10;58.90
44277;DHT22;29973;43.742;1.236;2022-12-07T14:19:49;22.90;58.50
44277;DHT22;29973;43.742;1.236;2022-12-07T14:22:28;21.10;58.70
44277;DHT22;29973;43.742;1.236;2022-12-07T14:25:01;20.20;63.10
44277;DHT22;29973;43.742;1.236;2022-12-07T14:27:37;20.50;60.50
44277;DHT22;29973;43.742;1.236;2022-12-07T14:30:04;20.00;64.50
44277;DHT22;29973;43.742;1.236;2022-12-07T14:32:30;20.20;66.40
44277;DHT22;29973;43.742;1.236;2022-12-07T14:35:13;19.90;67.10
44277;DHT22;29973;43.742;1.236;2022-12-07T14:37:40;19.40;66.20
44277;DHT22;29973;43.742;1.236;2022-12-07T14:40:07;18.70;68.30
44277;DHT22;29973;43.742;1.236;2022-12-07T14:42:33;18.00;70.50
44277;DHT22;29973;43.742;1.236;2022-12-07T14:45:00;16.90;76.20
44277;DHT22;29973;43.742;1.236;2022-12-07T14:47:26;16.10;78.00
44277;DHT22;29973;43.742;1.236;2022-12-07T14:49:52;16.30;79.00
44277;DHT22;29973;43.742;1.236;2022-12-07T14:52:24;17.70;78.30
44277;DHT22;29973;43.742;1.236;2022-12-07T14:54:52;19.50;70.50
44277;DHT22;29973;43.742;1.236;2022-12-07T14:57:18;20.60;63.00
44277;DHT22;29973;43.742;1.236;2022-12-07T14:59:44;20.80;63.70
44277;DHT22;29973;43.742;1.236;2022-12-07T15:02:12;20.30;63.70
44277;DHT22;29973;43.742;1.236;2022-12-07T15:04:38;20.70;62.10
44277;DHT22;29973;43.742;1.236;2022-12-07T15:07:06;19.40;61.60
44277;DHT22;29973;43.742;1.236;2022-12-07T15:09:31;17.90;65.70
44277;DHT22;29973;43.742;1.236;2022-12-07T15:11:57;15.90;75.90
44277;DHT22;29973;43.742;1.236;2022-12-07T15:14:23;14.40;86.20
44277;DHT22;29973;43.742;1.236;2022-12-07T15:16:48;13.60;90.80
44277;DHT22;29973;43.742;1.236;2022-12-07T15:19:17;13.10;89.40
44277;DHT22;29973;43.742;1.236;2022-12-07T15:21:43;12.90;91.90
44277;DHT22;29973;43.742;1.236;2022-12-07T15:24:12;12.60;94.20
44277;DHT22;29973;43.742;1.236;2022-12-07T15:26:39;12.30;95.00
44277;DHT22;29973;43.742;1.236;2022-12-07T15:29:07;12.10;96.10
44277;DHT22;29973;43.742;1.236;2022-12-07T15:31:33;11.70;96.90
44277;DHT22;29973;43.742;1.236;2022-12-07T15:33:59;11.50;98.30
44277;DHT22;29973;43.742;1.236;2022-12-07T15:36:27;11.30;99.90
44277;DHT22;29973;43.742;1.236;2022-12-07T15:38:53;11.00;99.90
44277;DHT22;29973;43.742;1.236;2022-12-07T15:41:19;10.70;99.90
44277;DHT22;29973;43.742;1.236;2022-12-07T15:43:45;10.60;99.90
44277;DHT22;29973;43.742;1.236;2022-12-07T15:46:35;10.50;99.90
44277;DHT22;29973;43.742;1.236;2022-12-07T15:49:01;10.30;99.90
44277;DHT22;29973;43.742;1.236;2022-12-07T15:51:27;10.00;99.90
44277;DHT22;29973;43.742;1.236;2022-12-07T15:53:54;9.70;99.90
44277;DHT22;29973;43.742;1.236;2022-12-07T15:56:20;9.50;99.90
44277;DHT22;29973;43.742;1.236;2022-12-07T15:58:46;9.30;99.90
44277;DHT22;29973;43.742;1.236;2022-12-07T16:01:17;9.20;99.90
44277;DHT22;29973;43.742;1.236;2022-12-07T16:03:44;8.90;99.90
44277;DHT22;29973;43.742;1.236;2022-12-07T16:06:10;8.80;99.90
44277;DHT22;29973;43.742;1.236;2022-12-07T16:08:36;8.70;99.90
44277;DHT22;29973;43.742;1.236;2022-12-07T16:11:06;8.40;99.90
44277;DHT22;29973;43.742;1.236;2022-12-07T16:13:32;8.30;99.90
44277;DHT22;29973;43.742;1.236;2022-12-07T16:15:58;8.20;99.90
44277;DHT22;29973;43.742;1.236;2022-12-07T16:18:23;8.00;99.90
44277;DHT22;29973;43.742;1.236;2022-12-07T16:20:49;7.80;99.90
44277;DHT22;29973;43.742;1.236;2022-12-07T16:23:15;7.70;99.90
44277;DHT22;29973;43.742;1.236;2022-12-07T16:25:41;7.40;99.90
44277;DHT22;29973;43.742;1.236;2022-12-07T16:28:07;7.50;99.90
44277;DHT22;29973;43.742;1.236;2022-12-07T16:30:33;7.40;99.90
44277;DHT22;29973;43.742;1.236;2022-12-07T16:32:59;7.30;99.90
44277;DHT22;29973;43.742;1.236;2022-12-07T16:35:25;7.20;99.90
44277;DHT22;29973;43.742;1.236;2022-12-07T16:37:50;7.00;99.90
44277;DHT22;29973;43.742;1.236;2022-12-07T16:40:16;6.90;99.90
44277;DHT22;29973;43.742;1.236;2022-12-07T16:42:42;6.80;99.90
44277;DHT22;29973;43.742;1.236;2022-12-07T16:45:08;6.70;99.90
44277;DHT22;29973;43.742;1.236;2022-12-07T16:47:37;6.80;99.90
44277;DHT22;29973;43.742;1.236;2022-12-07T16:50:03;6.80;99.90
44277;DHT22;29973;43.742;1.236;2022-12-07T16:52:29;6.80;99.90
44277;DHT22;29973;43.742;1.236;2022-12-07T16:54:54;6.70;99.90
44277;DHT22;29973;43.742;1.236;2022-12-07T16:57:20;6.50;99.90
44277;DHT22;29973;43.742;1.236;2022-12-07T16:59:46;6.50;99.90
44277;DHT22;29973;43.742;1.236;2022-12-07T17:02:12;6.40;99.90
44277;DHT22;29973;43.742;1.236;2022-12-07T17:04:37;6.30;99.90
44277;DHT22;29973;43.742;1.236;2022-12-07T17:07:08;6.30;99.90
44277;DHT22;29973;43.742;1.236;2022-12-07T17:09:34;6.20;99.90
44277;DHT22;29973;43.742;1.236;2022-12-07T17:12:00;5.90;99.90
44277;DHT22;29973;43.742;1.236;2022-12-07T17:14:26;5.90;99.90
44277;DHT22;29973;43.742;1.236;2022-12-07T17:17:11;5.80;99.90
44277;DHT22;29973;43.742;1.236;2022-12-07T17:19:36;5.80;99.90
44277;DHT22;29973;43.742;1.236;2022-12-07T17:22:02;5.70;99.90
44277;DHT22;29973;43.742;1.236;2022-12-07T17:24:28;5.60;99.90
44277;DHT22;29973;43.742;1.236;2022-12-07T17:26:54;5.40;99.90
44277;DHT22;29973;43.742;1.236;2022-12-07T17:29:19;5.20;99.90
44277;DHT22;29973;43.742;1.236;2022-12-07T17:31:46;5.30;99.90
44277;DHT22;29973;43.742;1.236;2022-12-07T17:34:13;5.30;99.90
44277;DHT22;29973;43.742;1.236;2022-12-07T17:36:39;5.50;99.90
44277;DHT22;29973;43.742;1.236;2022-12-07T17:39:09;5.30;99.90
44277;DHT22;29973;43.742;1.236;2022-12-07T17:41:36;5.30;99.90
44277;DHT22;29973;43.742;1.236;2022-12-07T17:44:20;5.10;99.90
44277;DHT22;29973;43.742;1.236;2022-12-07T17:46:49;5.00;99.90
44277;DHT22;29973;43.742;1.236;2022-12-07T17:49:15;4.90;99.90
44277;DHT22;29973;43.742;1.236;2022-12-07T17:51:42;4.80;99.90
44277;DHT22;29973;43.742;1.236;2022-12-07T17:54:26;4.70;99.90
44277;DHT22;29973;43.742;1.236;2022-12-07T17:56:52;4.60;99.90
44277;DHT22;29973;43.742;1.236;2022-12-07T17:59:17;4.60;99.90
44277;DHT22;29973;43.742;1.236;2022-12-07T18:01:44;4.70;99.90
44277;DHT22;29973;43.742;1.236;2022-12-07T18:04:10;4.60;99.90
44277;DHT22;29973;43.742;1.236;2022-12-07T18:06:37;4.40;99.90
44277;DHT22;29973;43.742;1.236;2022-12-07T18:09:03;4.40;99.90
44277;DHT22;29973;43.742;1.236;2022-12-07T18:11:30;4.40;99.90
44277;DHT22;29973;43.742;1.236;2022-12-07T18:13:56;4.30;99.90
44277;DHT22;29973;43.742;1.236;2022-12-07T18:16:24;4.20;99.90
44277;DHT22;29973;43.742;1.236;2022-12-07T18:18:51;4.20;99.90
44277;DHT22;29973;43.742;1.236;2022-12-07T18:21:21;4.20;99.90